Tropical Cyclones
[Index]
Main Index Home Page Stock Weather Photos Extreme Storms Discussion Storm News and Storm Chasing Reports Tropical Cyclones / Hurricanes / Typhoons Weather Data and Links Wild Fires / Bushfires Weather Observation Techniques Weather Picture Catalogue Tornado Pictures and Reports Stock Video Footage and DVDs for sale
Season 1989-1990 Tropical Cyclone FELANA Track Map
Season 1989-1990 Summaries: [BoM-AU] [JTWC-AU] [JTWC-SIO] [JTWC-SPAC] [JTWC-SH]
<<- Previous TC | JTWC 1989-1990 Season | Next TC ->>

click for intensity scale information  Lat/long Grid: Show Hide

 Date Labels: Show Hide

Joint Typhoon Warning Centre Cyclone Data

Name: FELANA

05 Mar 1990 18:00 UTC to 15 Mar 1990 06:00 UTC

    date/time    lat    long     hPa   cat  kts
1990-03-05 18    6.9    82.9                  15          
1990-03-06 00    8.0    83.0                  15          
1990-03-06 06    8.9    83.1                  15          
1990-03-06 12    9.7    83.3                  15          
1990-03-06 18   10.7    83.6                  15          
1990-03-07 00   11.7    83.5                  15          
1990-03-07 06   12.2    82.7                  25          
1990-03-07 12   12.4    81.7                  25          
1990-03-07 18   12.6    80.8                  25          
1990-03-08 00   12.8    79.8                  30          
1990-03-08 06   13.1    78.8            1     40          
1990-03-08 12   13.5    77.4            1     40          
1990-03-08 18   14.1    76.2            1     40          
1990-03-09 00   15.0    76.1            1     45          
1990-03-09 06   15.7    76.3            1     45          
1990-03-09 12   16.2    76.0            1     40          
1990-03-09 18   16.6    74.9                  35          
1990-03-10 00   16.8    73.4                  35          
1990-03-10 06   16.9    71.7                  35          
1990-03-10 12   16.6    70.2                  35          
1990-03-10 18   16.1    69.3                  35          
1990-03-11 00   16.0    68.8                  35          
1990-03-11 06   16.3    68.7                  35          
1990-03-11 12   16.6    68.7                  35          
1990-03-11 18   16.7    68.7                  35          
1990-03-12 00   16.6    68.7                  35          
1990-03-12 06   17.2    68.5                  35          
1990-03-12 12   18.2    68.2                  35          
1990-03-12 18   19.4    67.7                  35          
1990-03-13 00   20.4    67.2                  30          
1990-03-13 06   21.2    66.8                  30          
1990-03-13 12   22.1    66.6                  30          
1990-03-13 18   23.1    66.3                  30          
1990-03-14 00   23.8    65.8                  30          
1990-03-14 06   24.6    65.5                  30          
1990-03-14 12   25.6    65.2                  30          
1990-03-14 18   26.5    65.0                  30          
1990-03-15 00   27.7    65.3                  30          
1990-03-15 06   29.0    66.0                  25          
Winds are 1-min average.

Tropical cyclone tracks developed by Michael Bath using data from the Joint Typhoon Warning Centre Best Tracks and Google Maps.


[Australian Severe Weather index] [Copyright Notice] [Email Contacts] [Search This Site] [Privacy Policy]
Document: tropical_cyclone_felana.htm Updated: 18 September 2016